createdAt,value
2022-10-23T00:01:48.059Z,2.25
2022-10-23T00:04:20.501Z,3.50
2022-10-23T00:06:50.280Z,1.13
2022-10-23T00:09:22.455Z,3.35
2022-10-23T00:11:52.185Z,3.55
2022-10-23T00:14:24.542Z,5.10
2022-10-23T00:16:53.262Z,3.38
2022-10-23T00:19:21.533Z,1.75
2022-10-23T00:21:50.103Z,3.47
2022-10-23T00:24:18.941Z,2.40
2022-10-23T00:26:47.310Z,1.95
2022-10-23T00:29:15.598Z,2.65
2022-10-23T00:31:43.900Z,3.13
2022-10-23T00:34:12.377Z,3.47
2022-10-23T00:36:40.990Z,5.03
2022-10-23T00:39:09.281Z,4.50
2022-10-23T00:41:37.725Z,2.60
2022-10-23T00:44:09.125Z,5.68
2022-10-23T00:46:39.421Z,3.17
2022-10-23T00:49:09.729Z,2.15
2022-10-23T00:52:00.866Z,5.40
2022-10-23T00:54:34.234Z,4.18
2022-10-23T00:57:05.539Z,5.32
2022-10-23T00:59:36.979Z,3.83
2022-10-23T01:02:06.923Z,4.93
2022-10-23T01:04:36.166Z,4.07
2022-10-23T01:07:27.515Z,8.15
2022-10-23T01:10:07.856Z,4.10
2022-10-23T01:13:08.820Z,3.97
2022-10-23T01:16:02.772Z,4.57
2022-10-23T01:18:49.361Z,4.15
2022-10-23T01:21:28.390Z,3.70
2022-10-23T01:24:10.075Z,4.53
2022-10-23T01:26:56.495Z,2.63
2022-10-23T01:29:44.055Z,3.80
2022-10-23T01:32:28.860Z,4.65
2022-10-23T01:37:51.095Z,6.82
2022-10-23T01:40:34.612Z,7.22
2022-10-23T01:43:17.870Z,3.70
2022-10-23T01:45:59.880Z,7.25
2022-10-23T01:48:32.190Z,5.15
2022-10-23T01:51:08.485Z,8.15
2022-10-23T01:53:42.190Z,3.85
2022-10-23T01:56:16.633Z,5.55
2022-10-23T01:58:49.350Z,3.75
2022-10-23T02:01:21.276Z,3.65
2022-10-23T02:03:51.289Z,6.15
2022-10-23T02:06:19.923Z,4.40
2022-10-23T02:08:51.196Z,5.20
2022-10-23T02:11:22.679Z,10.98
2022-10-23T02:14:25.975Z,1.85
2022-10-23T02:16:56.238Z,5.45
2022-10-23T02:19:37.850Z,4.55
2022-10-23T02:22:26.633Z,2.42
2022-10-23T02:25:07.415Z,7.18
2022-10-23T02:27:46.605Z,7.18
2022-10-23T02:30:20.548Z,4.72
2022-10-23T02:32:52.375Z,5.22
2022-10-23T02:35:25.595Z,4.70
2022-10-23T02:37:59.095Z,9.27
2022-10-23T02:40:38.830Z,5.57
2022-10-23T02:43:18.320Z,5.90
2022-10-23T02:46:32.860Z,7.15
2022-10-23T02:49:32.749Z,3.63
2022-10-23T02:52:42.312Z,5.00
2022-10-23T02:55:22.913Z,6.35
2022-10-23T02:58:17.120Z,4.22
2022-10-23T03:00:53.621Z,5.35
2022-10-23T03:03:34.939Z,6.40
2022-10-23T03:06:03.911Z,5.30
2022-10-23T03:08:41.660Z,5.55
2022-10-23T03:11:09.961Z,6.72
2022-10-23T03:13:38.305Z,5.38
2022-10-23T03:16:06.610Z,6.00
2022-10-23T03:18:34.885Z,9.05
2022-10-23T03:21:03.580Z,9.32
2022-10-23T03:23:31.878Z,7.50
2022-10-23T03:26:00.205Z,7.90
2022-10-23T03:28:28.546Z,6.97
2022-10-23T03:30:57.341Z,8.15
2022-10-23T03:33:25.818Z,5.15
2022-10-23T03:35:54.083Z,8.05
2022-10-23T03:38:22.466Z,5.97
2022-10-23T03:40:50.747Z,6.72
2022-10-23T03:43:19.080Z,7.80
2022-10-23T03:45:47.315Z,4.93
2022-10-23T03:48:15.900Z,7.63
2022-10-23T03:50:44.225Z,7.57
2022-10-23T03:53:12.545Z,6.32
2022-10-23T03:55:40.865Z,5.68
2022-10-23T03:58:09.178Z,4.57
2022-10-23T04:00:37.964Z,5.63
2022-10-23T04:03:06.300Z,5.53
2022-10-23T04:05:34.621Z,5.68
2022-10-23T04:08:03.105Z,7.15
2022-10-23T04:10:31.585Z,8.98
2022-10-23T04:12:59.920Z,5.32
2022-10-23T04:15:28.218Z,7.82
2022-10-23T04:17:56.503Z,6.65
2022-10-23T04:20:24.740Z,6.40
2022-10-23T04:22:54.705Z,7.32
2022-10-23T04:25:22.968Z,6.72
2022-10-23T04:27:51.205Z,10.85
2022-10-23T04:30:19.575Z,8.02
2022-10-23T04:32:47.844Z,9.82
2022-10-23T04:35:16.177Z,6.82
2022-10-23T04:37:44.672Z,6.97
2022-10-23T04:40:13.640Z,6.72
2022-10-23T04:42:42.364Z,6.80
2022-10-23T04:45:11.264Z,4.78
2022-10-23T04:47:39.509Z,7.55
2022-10-23T04:50:08.340Z,4.82
2022-10-23T04:52:36.582Z,9.75
2022-10-23T04:55:05.440Z,6.72
2022-10-23T04:57:33.825Z,7.30
2022-10-23T05:00:02.136Z,5.68
2022-10-23T05:02:30.479Z,9.45
2022-10-23T05:04:58.829Z,11.40
2022-10-23T05:07:27.157Z,4.70
2022-10-23T05:09:55.422Z,5.32
2022-10-23T05:12:26.345Z,6.30
2022-10-23T05:14:55.440Z,6.65
2022-10-23T05:17:38.010Z,6.63
2022-10-23T05:20:13.675Z,9.95
2022-10-23T05:22:44.361Z,6.55
2022-10-23T05:25:13.826Z,10.30
2022-10-23T05:27:42.471Z,7.93
2022-10-23T05:30:11.875Z,9.10
2022-10-23T05:32:41.640Z,7.93
2022-10-23T05:35:14.960Z,8.93
2022-10-23T05:37:46.628Z,6.38
2022-10-23T05:40:15.281Z,4.10
2022-10-23T05:42:43.965Z,6.13
2022-10-23T05:45:12.630Z,5.03
2022-10-23T05:47:40.865Z,4.75
2022-10-23T05:50:09.500Z,7.63
2022-10-23T05:52:37.815Z,5.55
2022-10-23T05:55:06.361Z,8.07
2022-10-23T05:57:35.570Z,3.50
2022-10-23T06:00:04.529Z,10.05
2022-10-23T06:02:33.717Z,5.07
2022-10-23T06:05:02.210Z,5.88
2022-10-23T06:07:33.713Z,6.43
2022-10-23T06:10:05.341Z,5.50
2022-10-23T06:12:36.865Z,6.00
2022-10-23T06:15:06.286Z,6.47
2022-10-23T06:17:34.638Z,3.05
2022-10-23T06:20:03.540Z,9.93
2022-10-23T06:22:31.893Z,9.38
2022-10-23T06:25:00.158Z,5.88
2022-10-23T06:27:28.542Z,7.60
2022-10-23T06:29:56.878Z,8.70
2022-10-23T06:32:25.165Z,4.60
2022-10-23T06:34:53.431Z,6.22
2022-10-23T06:37:21.798Z,5.15
2022-10-23T06:39:50.138Z,5.28
2022-10-23T06:42:18.465Z,10.00
2022-10-23T06:44:49.670Z,4.65
2022-10-23T06:49:51.242Z,4.63
2022-10-23T06:52:41.694Z,2.67
2022-10-23T06:55:08.545Z,5.90
2022-10-23T06:57:36.980Z,6.35
2022-10-23T07:00:06.305Z,8.40
2022-10-23T07:02:34.550Z,6.82
2022-10-23T07:05:02.945Z,5.32
2022-10-23T07:07:32.385Z,6.72
2022-10-23T07:10:00.774Z,10.05
2022-10-23T07:12:30.320Z,5.50
2022-10-23T07:14:58.640Z,4.65
2022-10-23T07:17:28.780Z,3.90
2022-10-23T07:19:59.419Z,6.72
2022-10-23T07:22:27.645Z,7.22
2022-10-23T07:24:55.850Z,7.05
2022-10-23T07:27:24.460Z,6.13
2022-10-23T07:29:54.120Z,5.95
2022-10-23T07:32:24.810Z,7.63
2022-10-23T07:34:55.580Z,6.05
2022-10-23T07:37:24.042Z,5.65
2022-10-23T07:39:52.702Z,4.68
2022-10-23T07:42:21.173Z,4.15
2022-10-23T07:44:49.507Z,4.30
2022-10-23T07:47:17.978Z,7.72
2022-10-23T07:49:46.290Z,4.47
2022-10-23T07:52:14.623Z,4.63
2022-10-23T07:54:43.071Z,7.32
2022-10-23T07:57:13.030Z,5.45
2022-10-23T07:59:41.345Z,5.20
2022-10-23T08:02:17.275Z,6.70
2022-10-23T08:04:46.145Z,4.28
2022-10-23T08:07:14.461Z,5.18
2022-10-23T08:09:42.697Z,4.45
2022-10-23T08:12:11.416Z,6.82
2022-10-23T08:14:39.742Z,7.13
2022-10-23T08:17:13.646Z,4.72
2022-10-23T08:19:47.260Z,4.95
2022-10-23T08:22:16.360Z,8.13
2022-10-23T08:24:44.660Z,4.03
2022-10-23T08:27:13.120Z,4.97
2022-10-23T08:29:41.500Z,3.15
2022-10-23T08:32:18.467Z,2.97
2022-10-23T08:34:47.075Z,5.57
2022-10-23T08:37:15.413Z,8.90
2022-10-23T08:39:43.880Z,5.40
2022-10-23T08:42:22.462Z,4.82
2022-10-23T08:44:59.580Z,11.60
2022-10-23T08:47:59.412Z,3.45
2022-10-23T08:50:33.508Z,4.00
2022-10-23T08:53:10.628Z,8.95
2022-10-23T08:56:05.081Z,14.93
2022-10-23T08:59:02.309Z,7.17
2022-10-23T09:01:51.414Z,5.80
2022-10-23T09:04:22.618Z,7.72
2022-10-23T09:07:27.580Z,6.63
2022-10-23T09:10:26.118Z,3.13
2022-10-23T09:12:54.528Z,8.75
2022-10-23T09:15:36.698Z,4.40
2022-10-23T09:18:19.918Z,3.15
2022-10-23T09:20:49.340Z,2.70
2022-10-23T09:23:20.501Z,5.40
2022-10-23T09:25:54.141Z,7.32
2022-10-23T09:28:37.640Z,4.65
2022-10-23T09:31:10.618Z,6.28
2022-10-23T09:33:40.858Z,7.32
2022-10-23T09:36:21.665Z,5.47
2022-10-23T09:38:52.718Z,4.18
2022-10-23T09:41:26.580Z,7.72
2022-10-23T09:44:21.120Z,4.80
2022-10-23T09:46:56.562Z,8.97
2022-10-23T09:49:26.474Z,5.50
2022-10-23T09:52:09.618Z,4.50
2022-10-23T09:54:52.868Z,4.68
2022-10-23T09:57:33.181Z,3.30
2022-10-23T10:00:07.893Z,4.45
2022-10-23T10:02:37.976Z,5.07
2022-10-23T10:05:30.465Z,4.25
2022-10-23T10:08:06.704Z,4.97
2022-10-23T10:10:44.225Z,6.78
2022-10-23T10:13:43.260Z,8.77
2022-10-23T10:16:44.501Z,5.13
2022-10-23T10:19:31.271Z,4.40
2022-10-23T10:22:10.612Z,7.03
2022-10-23T10:24:59.895Z,7.75
2022-10-23T10:27:55.401Z,4.43
2022-10-23T10:30:26.775Z,5.70
2022-10-23T10:33:04.020Z,6.07
2022-10-23T10:36:04.220Z,5.20
2022-10-23T10:38:45.020Z,6.55
2022-10-23T10:41:22.972Z,8.88
2022-10-23T10:44:21.042Z,4.10
2022-10-23T10:47:21.203Z,7.03
2022-10-23T10:50:13.978Z,5.18
2022-10-23T10:53:15.800Z,4.47
2022-10-23T10:55:45.018Z,12.15
2022-10-23T10:58:40.062Z,6.50
2022-10-23T11:01:57.951Z,4.93
2022-10-23T11:05:07.855Z,5.65
2022-10-23T11:07:44.738Z,4.03
2022-10-23T11:10:21.160Z,4.85
2022-10-23T11:12:50.409Z,4.63
2022-10-23T11:15:44.116Z,8.38
2022-10-23T11:18:25.342Z,7.40
2022-10-23T11:21:10.325Z,3.85
2022-10-23T11:26:30.141Z,5.40
2022-10-23T11:29:17.330Z,8.30
2022-10-23T11:32:26.663Z,6.88
2022-10-23T11:34:57.976Z,7.13
2022-10-23T11:37:31.096Z,7.47
2022-10-23T11:40:02.618Z,4.18
2022-10-23T11:42:43.028Z,5.53
2022-10-23T11:45:50.014Z,4.82
2022-10-23T11:48:39.741Z,7.05
2022-10-23T11:51:29.364Z,4.50
2022-10-23T11:54:28.225Z,8.68
2022-10-23T11:57:18.500Z,4.63
2022-10-23T11:59:46.780Z,4.57
2022-10-23T12:02:43.814Z,5.55
2022-10-23T12:05:42.515Z,10.00
2022-10-23T12:08:24.548Z,6.70
2022-10-23T12:10:54.135Z,5.22
2022-10-23T12:13:33.779Z,5.78
2022-10-23T12:16:02.140Z,7.18
2022-10-23T12:18:30.620Z,5.18
2022-10-23T12:21:00.865Z,9.50
2022-10-23T12:23:50.465Z,6.05
2022-10-23T12:26:51.746Z,4.40
2022-10-23T12:29:35.578Z,5.78
2022-10-23T12:32:34.625Z,3.80
2022-10-23T12:35:48.662Z,4.40
2022-10-23T12:38:21.621Z,3.65
2022-10-23T12:41:07.280Z,4.82
2022-10-23T12:43:38.985Z,6.45
2022-10-23T12:46:41.620Z,7.38
2022-10-23T12:49:18.460Z,5.10
2022-10-23T12:51:55.899Z,6.82
2022-10-23T12:54:24.880Z,5.20
2022-10-23T12:56:54.297Z,5.97
2022-10-23T12:59:36.708Z,4.45
2022-10-23T13:02:26.129Z,4.82
2022-10-23T13:05:00.063Z,7.13
2022-10-23T13:07:34.134Z,8.27
2022-10-23T13:10:03.542Z,5.90
2022-10-23T13:12:37.485Z,5.60
2022-10-23T13:15:14.965Z,6.22
2022-10-23T13:17:49.030Z,7.03
2022-10-23T13:20:22.210Z,6.30
2022-10-23T13:23:12.540Z,4.78
2022-10-23T13:25:41.395Z,5.32
2022-10-23T13:28:09.660Z,4.57
2022-10-23T13:30:58.158Z,5.22
2022-10-23T13:33:32.030Z,8.25
2022-10-23T13:36:03.540Z,5.68
2022-10-23T13:38:35.138Z,4.78
2022-10-23T13:41:05.662Z,6.97
2022-10-23T13:43:35.419Z,4.97
2022-10-23T13:46:04.606Z,7.10
2022-10-23T13:48:33.000Z,4.70
2022-10-23T13:51:16.375Z,6.30
2022-10-23T13:53:44.700Z,7.03
2022-10-23T13:56:17.495Z,6.28
2022-10-23T13:58:50.480Z,6.00
2022-10-23T14:01:21.650Z,6.07
2022-10-23T14:03:52.062Z,6.57
2022-10-23T14:06:24.546Z,6.80
2022-10-23T14:08:53.519Z,3.47
2022-10-23T14:11:22.300Z,5.68
2022-10-23T14:13:50.961Z,7.57
2022-10-23T14:16:24.381Z,4.20
2022-10-23T14:18:52.960Z,7.38
2022-10-23T14:21:22.460Z,5.53
2022-10-23T14:23:52.320Z,5.60
2022-10-23T14:26:24.182Z,7.30
2022-10-23T14:29:02.428Z,3.63
2022-10-23T14:31:38.483Z,5.10
2022-10-23T14:34:06.914Z,6.20
2022-10-23T14:36:49.458Z,7.07
2022-10-23T14:39:19.437Z,4.78
2022-10-23T14:41:49.012Z,4.97
2022-10-23T14:44:17.345Z,7.30
2022-10-23T14:46:45.660Z,4.20
2022-10-23T14:49:16.653Z,6.47
2022-10-23T14:51:45.021Z,6.72
2022-10-23T14:54:16.670Z,4.93
2022-10-23T14:56:45.095Z,4.80
2022-10-23T14:59:14.784Z,5.60
2022-10-23T15:01:48.359Z,3.25
2022-10-23T15:04:22.375Z,4.13
2022-10-23T15:06:50.690Z,4.45
2022-10-23T15:09:22.618Z,5.18
2022-10-23T15:11:54.356Z,5.72
2022-10-23T15:14:22.853Z,5.70
2022-10-23T15:16:51.474Z,2.60
2022-10-23T15:19:23.095Z,5.80
2022-10-23T15:21:52.446Z,7.43
2022-10-23T15:24:21.980Z,5.68
2022-10-23T15:26:51.265Z,6.45
2022-10-23T15:29:20.560Z,6.25
2022-10-23T15:32:00.077Z,9.63
2022-10-23T15:34:30.461Z,9.25
2022-10-23T15:36:59.700Z,11.52
2022-10-23T15:39:36.540Z,7.15
2022-10-23T15:42:07.235Z,4.13
2022-10-23T15:44:35.909Z,6.57
2022-10-23T15:47:04.822Z,6.57
2022-10-23T15:49:33.629Z,6.18
2022-10-23T15:52:03.126Z,5.35
2022-10-23T15:54:32.842Z,4.95
2022-10-23T15:57:02.495Z,4.00
2022-10-23T15:59:32.980Z,4.13
2022-10-23T16:02:01.933Z,6.07
2022-10-23T16:04:30.397Z,4.10
2022-10-23T16:06:58.637Z,4.47
2022-10-23T16:09:26.938Z,2.65
2022-10-23T16:11:55.257Z,4.18
2022-10-23T16:14:23.598Z,2.90
2022-10-23T16:16:54.185Z,3.08
2022-10-23T16:19:22.605Z,4.97
2022-10-23T16:21:50.942Z,2.55
2022-10-23T16:24:19.261Z,5.75
2022-10-23T16:26:51.260Z,1.67
2022-10-23T16:29:20.181Z,3.60
2022-10-23T16:31:48.630Z,4.00
2022-10-23T16:34:19.839Z,2.92
2022-10-23T16:36:48.760Z,2.75
2022-10-23T16:39:20.195Z,4.05
2022-10-23T16:41:48.546Z,3.03
2022-10-23T16:44:17.021Z,0.45
2022-10-23T16:46:48.061Z,1.77
2022-10-23T16:49:16.398Z,2.15
2022-10-23T16:51:44.855Z,3.00
2022-10-23T16:54:14.841Z,1.13
2022-10-23T16:56:46.140Z,1.95
2022-10-23T16:59:14.488Z,1.02
2022-10-23T17:01:42.982Z,2.00
2022-10-23T17:04:11.420Z,1.67
2022-10-23T17:06:42.300Z,1.85
2022-10-23T17:09:10.655Z,4.15
2022-10-23T17:11:41.480Z,1.63
2022-10-23T17:14:16.544Z,1.23
2022-10-23T17:16:49.672Z,1.42
2022-10-23T17:19:40.078Z,4.00
2022-10-23T17:22:11.418Z,0.95
2022-10-23T17:24:42.193Z,1.98
2022-10-23T17:27:13.091Z,2.13
2022-10-23T17:29:41.385Z,2.80
2022-10-23T17:32:09.770Z,4.68
2022-10-23T17:34:38.840Z,0.82
2022-10-23T17:37:09.606Z,1.90
2022-10-23T17:39:37.853Z,1.33
2022-10-23T17:42:08.539Z,1.67
2022-10-23T17:44:37.500Z,0.22
2022-10-23T17:47:05.820Z,0.60
2022-10-23T17:49:34.261Z,0.93
2022-10-23T17:52:03.094Z,2.28
2022-10-23T17:54:32.982Z,1.45
2022-10-23T17:57:03.905Z,1.70
2022-10-23T17:59:32.228Z,1.08
2022-10-23T18:02:03.417Z,0.95
2022-10-23T18:04:31.822Z,1.52
2022-10-23T18:07:00.088Z,1.52
2022-10-23T18:09:28.561Z,1.73
2022-10-23T18:11:57.026Z,1.42
2022-10-23T18:14:28.451Z,0.77
2022-10-23T18:16:58.055Z,0.57
2022-10-23T18:19:26.419Z,0.63
2022-10-23T18:21:54.780Z,1.38
2022-10-23T18:24:23.441Z,0.43
2022-10-23T18:26:51.740Z,0.30
2022-10-23T18:29:20.546Z,1.25
2022-10-23T18:31:51.595Z,3.70
2022-10-23T18:34:22.913Z,0.60
2022-10-23T18:36:52.404Z,0.38
2022-10-23T18:39:23.559Z,0.47
2022-10-23T18:41:54.802Z,1.27
2022-10-23T18:44:24.383Z,1.48
2022-10-23T18:46:53.668Z,0.70
2022-10-23T18:49:22.140Z,1.30
2022-10-23T18:51:51.400Z,2.58
2022-10-23T18:54:23.259Z,0.60
2022-10-23T18:56:51.751Z,0.20
2022-10-23T18:59:22.291Z,0.85
2022-10-23T19:01:51.537Z,1.33
2022-10-23T19:04:20.195Z,1.55
2022-10-23T19:06:50.620Z,0.60
2022-10-23T19:09:22.145Z,1.15
2022-10-23T19:11:50.621Z,2.75
2022-10-23T19:14:18.923Z,1.10
2022-10-23T19:17:12.548Z,2.95
2022-10-23T19:19:48.065Z,1.02
2022-10-23T19:22:18.140Z,0.75
2022-10-23T19:25:03.203Z,2.58
2022-10-23T19:27:31.920Z,1.10
2022-10-23T19:30:04.256Z,0.85
2022-10-23T19:32:32.505Z,1.00
2022-10-23T19:35:02.136Z,0.77
2022-10-23T19:37:30.438Z,1.02
2022-10-23T19:39:58.786Z,1.40
2022-10-23T19:42:27.066Z,0.77
2022-10-23T19:44:56.310Z,0.73
2022-10-23T19:47:24.550Z,0.50
2022-10-23T19:49:53.345Z,0.60
2022-10-23T19:52:26.302Z,1.13
2022-10-23T19:54:54.580Z,0.40
2022-10-23T19:57:22.894Z,0.57
2022-10-23T19:59:52.799Z,1.10
2022-10-23T20:02:21.864Z,0.45
2022-10-23T20:04:50.331Z,0.47
2022-10-23T20:07:18.773Z,0.65
2022-10-23T20:09:47.075Z,0.30
2022-10-23T20:12:15.561Z,1.35
2022-10-23T20:14:43.814Z,0.65
2022-10-23T20:17:12.200Z,0.82
2022-10-23T20:19:43.050Z,0.60
2022-10-23T20:22:11.900Z,1.15
2022-10-23T20:24:43.140Z,0.40
2022-10-23T20:27:14.601Z,0.40
2022-10-23T20:29:44.940Z,1.05
2022-10-23T20:32:13.948Z,0.70
2022-10-23T20:34:42.792Z,1.90
2022-10-23T20:37:11.062Z,0.22
2022-10-23T20:39:40.705Z,0.40
2022-10-23T20:42:09.023Z,0.73
2022-10-23T20:44:37.397Z,1.20
2022-10-23T20:47:05.800Z,0.73
2022-10-23T20:49:34.115Z,1.02
2022-10-23T20:52:03.749Z,0.60
2022-10-23T20:54:34.161Z,0.82
2022-10-23T20:57:02.461Z,0.80
2022-10-23T20:59:30.783Z,0.35
2022-10-23T21:01:59.354Z,1.13
2022-10-23T21:04:29.781Z,1.33
2022-10-23T21:07:14.375Z,0.38
2022-10-23T21:09:45.260Z,0.50
2022-10-23T21:12:16.059Z,0.40
2022-10-23T21:14:44.320Z,0.40
2022-10-23T21:17:17.738Z,2.13
2022-10-23T21:19:46.295Z,0.80
2022-10-23T21:22:14.947Z,0.30
2022-10-23T21:24:43.274Z,0.30
2022-10-23T21:27:11.900Z,0.82
2022-10-23T21:29:40.231Z,1.55
2022-10-23T21:32:08.541Z,0.80
2022-10-23T21:34:36.864Z,0.30
2022-10-23T21:37:14.541Z,0.38
2022-10-23T21:39:44.754Z,0.63
2022-10-23T21:42:16.612Z,1.67
2022-10-23T21:44:45.020Z,0.30
2022-10-23T21:47:13.315Z,0.52
2022-10-23T21:49:41.782Z,0.30
2022-10-23T21:52:10.140Z,4.35
2022-10-23T21:54:38.380Z,0.40
2022-10-23T21:57:06.767Z,0.30
2022-10-23T21:59:36.435Z,0.28
2022-10-23T22:02:05.192Z,0.65
2022-10-23T22:04:33.751Z,1.33
2022-10-23T22:07:03.749Z,0.40
2022-10-23T22:09:33.504Z,0.30
2022-10-23T22:12:02.302Z,0.63
2022-10-23T22:14:30.776Z,0.40
2022-10-23T22:16:59.995Z,1.05
2022-10-23T22:19:28.397Z,1.50
2022-10-23T22:21:56.855Z,1.73
2022-10-23T22:24:25.508Z,0.30
2022-10-23T22:26:56.848Z,0.55
2022-10-23T22:29:28.515Z,0.30
2022-10-23T22:31:57.661Z,0.95
2022-10-23T22:37:17.500Z,0.38
2022-10-23T22:39:45.875Z,0.30
2022-10-23T22:42:14.195Z,0.40
2022-10-23T22:44:42.480Z,0.30
2022-10-23T22:47:10.728Z,0.20
2022-10-23T22:49:39.397Z,0.52
2022-10-23T22:52:07.696Z,2.42
2022-10-23T22:54:36.135Z,1.40
2022-10-23T22:57:04.446Z,0.47
2022-10-23T22:59:35.341Z,1.13
2022-10-23T23:02:03.686Z,0.80
2022-10-23T23:04:39.467Z,0.28
2022-10-23T23:07:13.079Z,1.65
2022-10-23T23:09:43.943Z,1.17
2022-10-23T23:12:15.082Z,0.52
2022-10-23T23:14:44.480Z,0.60
2022-10-23T23:17:13.500Z,1.13
2022-10-23T23:19:41.829Z,2.05
2022-10-23T23:22:10.321Z,4.88
2022-10-23T23:24:38.616Z,0.43
2022-10-23T23:27:07.103Z,0.20
2022-10-23T23:29:35.796Z,1.55
2022-10-23T23:32:07.102Z,0.63
2022-10-23T23:34:35.333Z,1.15
2022-10-23T23:37:03.586Z,0.82
2022-10-23T23:39:32.020Z,0.45
2022-10-23T23:42:00.380Z,0.60
2022-10-23T23:44:28.713Z,0.32
2022-10-23T23:46:57.020Z,0.80
2022-10-23T23:49:25.812Z,1.25
2022-10-23T23:51:56.101Z,0.52
2022-10-23T23:54:24.425Z,0.75
2022-10-23T23:56:53.460Z,0.90
2022-10-23T23:59:21.815Z,0.20
